sensor_id;sensor_type;location;lat;lon;timestamp;P1;durP1;ratioP1;P2;durP2;ratioP2
12884;SDS011;6510;51.362;7.370;2022-10-16T00:02:07;7.87;;;3.40;;
12884;SDS011;6510;51.362;7.370;2022-10-16T00:04:32;4.73;;;3.13;;
12884;SDS011;6510;51.362;7.370;2022-10-16T00:06:58;8.07;;;2.93;;
12884;SDS011;6510;51.362;7.370;2022-10-16T00:09:24;7.60;;;3.67;;
12884;SDS011;6510;51.362;7.370;2022-10-16T00:11:49;5.07;;;3.47;;
12884;SDS011;6510;51.362;7.370;2022-10-16T00:14:15;4.83;;;3.47;;
12884;SDS011;6510;51.362;7.370;2022-10-16T00:16:41;6.23;;;3.63;;
12884;SDS011;6510;51.362;7.370;2022-10-16T00:19:07;5.13;;;3.80;;
12884;SDS011;6510;51.362;7.370;2022-10-16T00:21:35;4.23;;;3.10;;
12884;SDS011;6510;51.362;7.370;2022-10-16T00:24:05;4.27;;;3.10;;
12884;SDS011;6510;51.362;7.370;2022-10-16T00:26:33;3.80;;;3.10;;
12884;SDS011;6510;51.362;7.370;2022-10-16T00:29:00;5.30;;;3.20;;
12884;SDS011;6510;51.362;7.370;2022-10-16T00:31:28;4.40;;;2.47;;
12884;SDS011;6510;51.362;7.370;2022-10-16T00:33:54;4.33;;;3.03;;
12884;SDS011;6510;51.362;7.370;2022-10-16T00:36:21;3.80;;;2.80;;
12884;SDS011;6510;51.362;7.370;2022-10-16T00:38:52;7.60;;;3.63;;
12884;SDS011;6510;51.362;7.370;2022-10-16T00:41:20;6.73;;;3.07;;
12884;SDS011;6510;51.362;7.370;2022-10-16T00:43:49;3.30;;;3.00;;
12884;SDS011;6510;51.362;7.370;2022-10-16T00:46:24;3.50;;;3.20;;
12884;SDS011;6510;51.362;7.370;2022-10-16T00:51:42;6.33;;;3.20;;
12884;SDS011;6510;51.362;7.370;2022-10-16T00:54:15;3.37;;;3.03;;
12884;SDS011;6510;51.362;7.370;2022-10-16T00:56:45;4.70;;;3.67;;
12884;SDS011;6510;51.362;7.370;2022-10-16T00:59:14;5.10;;;2.73;;
12884;SDS011;6510;51.362;7.370;2022-10-16T01:01:45;4.33;;;3.47;;
12884;SDS011;6510;51.362;7.370;2022-10-16T01:04:11;7.13;;;3.50;;
12884;SDS011;6510;51.362;7.370;2022-10-16T01:09:15;5.30;;;3.23;;
12884;SDS011;6510;51.362;7.370;2022-10-16T01:17:57;2.90;;;2.70;;
12884;SDS011;6510;51.362;7.370;2022-10-16T01:28:26;5.33;;;2.70;;
12884;SDS011;6510;51.362;7.370;2022-10-16T01:30:57;3.17;;;2.40;;
12884;SDS011;6510;51.362;7.370;2022-10-16T01:33:31;2.80;;;2.50;;
12884;SDS011;6510;51.362;7.370;2022-10-16T01:36:05;2.63;;;2.20;;
12884;SDS011;6510;51.362;7.370;2022-10-16T01:38:38;3.63;;;2.60;;
12884;SDS011;6510;51.362;7.370;2022-10-16T01:41:28;3.43;;;2.40;;
12884;SDS011;6510;51.362;7.370;2022-10-16T01:44:06;2.77;;;2.53;;
12884;SDS011;6510;51.362;7.370;2022-10-16T01:46:36;4.90;;;2.57;;
12884;SDS011;6510;51.362;7.370;2022-10-16T01:49:06;3.20;;;2.90;;
12884;SDS011;6510;51.362;7.370;2022-10-16T01:51:34;2.90;;;2.47;;
12884;SDS011;6510;51.362;7.370;2022-10-16T01:54:02;2.93;;;2.60;;
12884;SDS011;6510;51.362;7.370;2022-10-16T01:56:32;4.80;;;3.23;;
12884;SDS011;6510;51.362;7.370;2022-10-16T01:59:03;2.90;;;2.57;;
12884;SDS011;6510;51.362;7.370;2022-10-16T02:01:32;2.70;;;2.50;;
12884;SDS011;6510;51.362;7.370;2022-10-16T02:04:03;3.03;;;2.67;;
12884;SDS011;6510;51.362;7.370;2022-10-16T02:06:34;4.17;;;2.60;;
12884;SDS011;6510;51.362;7.370;2022-10-16T02:09:00;4.23;;;2.50;;
12884;SDS011;6510;51.362;7.370;2022-10-16T02:11:26;3.00;;;2.80;;
12884;SDS011;6510;51.362;7.370;2022-10-16T02:13:58;7.60;;;2.60;;
12884;SDS011;6510;51.362;7.370;2022-10-16T02:16:34;3.00;;;2.70;;
12884;SDS011;6510;51.362;7.370;2022-10-16T02:19:05;4.30;;;2.70;;
12884;SDS011;6510;51.362;7.370;2022-10-16T02:21:39;2.63;;;2.43;;
12884;SDS011;6510;51.362;7.370;2022-10-16T02:27:40;6.10;;;2.83;;
12884;SDS011;6510;51.362;7.370;2022-10-16T02:30:02;3.10;;;2.57;;
12884;SDS011;6510;51.362;7.370;2022-10-16T02:32:37;3.00;;;2.70;;
12884;SDS011;6510;51.362;7.370;2022-10-16T02:35:06;3.70;;;2.70;;
12884;SDS011;6510;51.362;7.370;2022-10-16T02:37:33;2.67;;;2.47;;
12884;SDS011;6510;51.362;7.370;2022-10-16T02:39:59;3.00;;;2.77;;
12884;SDS011;6510;51.362;7.370;2022-10-16T02:42:35;3.83;;;2.80;;
12884;SDS011;6510;51.362;7.370;2022-10-16T02:45:03;3.03;;;2.40;;
12884;SDS011;6510;51.362;7.370;2022-10-16T02:47:29;3.50;;;2.87;;
12884;SDS011;6510;51.362;7.370;2022-10-16T02:49:55;4.07;;;2.80;;
12884;SDS011;6510;51.362;7.370;2022-10-16T02:52:21;2.60;;;2.40;;
12884;SDS011;6510;51.362;7.370;2022-10-16T02:54:46;2.90;;;2.70;;
12884;SDS011;6510;51.362;7.370;2022-10-16T02:57:12;2.57;;;2.40;;
12884;SDS011;6510;51.362;7.370;2022-10-16T02:59:38;3.07;;;2.37;;
12884;SDS011;6510;51.362;7.370;2022-10-16T03:02:03;2.50;;;2.30;;
12884;SDS011;6510;51.362;7.370;2022-10-16T03:04:29;2.53;;;2.30;;
12884;SDS011;6510;51.362;7.370;2022-10-16T03:06:55;3.10;;;2.30;;
12884;SDS011;6510;51.362;7.370;2022-10-16T03:09:20;3.10;;;2.00;;
12884;SDS011;6510;51.362;7.370;2022-10-16T03:11:46;3.37;;;2.47;;
12884;SDS011;6510;51.362;7.370;2022-10-16T03:14:11;3.80;;;2.40;;
12884;SDS011;6510;51.362;7.370;2022-10-16T03:16:37;2.33;;;1.90;;
12884;SDS011;6510;51.362;7.370;2022-10-16T03:19:03;3.50;;;2.10;;
12884;SDS011;6510;51.362;7.370;2022-10-16T03:21:28;2.30;;;2.10;;
12884;SDS011;6510;51.362;7.370;2022-10-16T03:23:54;2.67;;;1.90;;
12884;SDS011;6510;51.362;7.370;2022-10-16T03:26:20;2.67;;;2.13;;
12884;SDS011;6510;51.362;7.370;2022-10-16T03:28:46;1.93;;;1.70;;
12884;SDS011;6510;51.362;7.370;2022-10-16T03:31:11;6.80;;;2.00;;
12884;SDS011;6510;51.362;7.370;2022-10-16T03:33:37;1.90;;;1.80;;
12884;SDS011;6510;51.362;7.370;2022-10-16T03:36:02;2.00;;;1.90;;
12884;SDS011;6510;51.362;7.370;2022-10-16T03:38:28;2.80;;;2.00;;
12884;SDS011;6510;51.362;7.370;2022-10-16T03:40:54;1.80;;;1.70;;
12884;SDS011;6510;51.362;7.370;2022-10-16T03:43:20;1.90;;;1.80;;
12884;SDS011;6510;51.362;7.370;2022-10-16T03:45:45;2.70;;;1.80;;
12884;SDS011;6510;51.362;7.370;2022-10-16T03:48:11;2.13;;;1.70;;
12884;SDS011;6510;51.362;7.370;2022-10-16T03:50:36;1.67;;;1.57;;
12884;SDS011;6510;51.362;7.370;2022-10-16T03:53:02;2.20;;;1.63;;
12884;SDS011;6510;51.362;7.370;2022-10-16T03:55:28;1.87;;;1.77;;
12884;SDS011;6510;51.362;7.370;2022-10-16T03:57:53;1.97;;;1.77;;
12884;SDS011;6510;51.362;7.370;2022-10-16T04:00:19;3.87;;;1.60;;
12884;SDS011;6510;51.362;7.370;2022-10-16T04:02:51;3.77;;;1.50;;
12884;SDS011;6510;51.362;7.370;2022-10-16T04:05:17;2.17;;;1.70;;
12884;SDS011;6510;51.362;7.370;2022-10-16T04:07:42;2.47;;;1.70;;
12884;SDS011;6510;51.362;7.370;2022-10-16T04:10:08;3.43;;;1.73;;
12884;SDS011;6510;51.362;7.370;2022-10-16T04:12:34;2.33;;;1.90;;
12884;SDS011;6510;51.362;7.370;2022-10-16T04:14:59;2.27;;;1.70;;
12884;SDS011;6510;51.362;7.370;2022-10-16T04:17:25;2.40;;;1.60;;
12884;SDS011;6510;51.362;7.370;2022-10-16T04:19:50;1.87;;;1.50;;
12884;SDS011;6510;51.362;7.370;2022-10-16T04:22:16;2.07;;;1.60;;
12884;SDS011;6510;51.362;7.370;2022-10-16T04:24:42;2.60;;;1.50;;
12884;SDS011;6510;51.362;7.370;2022-10-16T04:27:07;1.73;;;1.63;;
12884;SDS011;6510;51.362;7.370;2022-10-16T04:29:33;1.63;;;1.30;;
12884;SDS011;6510;51.362;7.370;2022-10-16T04:31:58;2.20;;;1.40;;
12884;SDS011;6510;51.362;7.370;2022-10-16T04:34:24;2.47;;;1.50;;
12884;SDS011;6510;51.362;7.370;2022-10-16T04:36:50;1.60;;;1.50;;
12884;SDS011;6510;51.362;7.370;2022-10-16T04:39:16;1.70;;;1.60;;
12884;SDS011;6510;51.362;7.370;2022-10-16T04:41:41;3.00;;;1.60;;
12884;SDS011;6510;51.362;7.370;2022-10-16T04:44:14;1.43;;;1.33;;
12884;SDS011;6510;51.362;7.370;2022-10-16T04:46:39;2.37;;;1.40;;
12884;SDS011;6510;51.362;7.370;2022-10-16T04:49:05;2.50;;;1.63;;
12884;SDS011;6510;51.362;7.370;2022-10-16T04:51:31;2.07;;;1.40;;
12884;SDS011;6510;51.362;7.370;2022-10-16T04:53:56;1.77;;;1.67;;
12884;SDS011;6510;51.362;7.370;2022-10-16T04:56:22;1.97;;;1.60;;
12884;SDS011;6510;51.362;7.370;2022-10-16T04:58:48;2.70;;;1.70;;
12884;SDS011;6510;51.362;7.370;2022-10-16T05:01:14;3.07;;;1.60;;
12884;SDS011;6510;51.362;7.370;2022-10-16T05:03:40;2.07;;;1.50;;
12884;SDS011;6510;51.362;7.370;2022-10-16T05:06:05;2.23;;;1.63;;
12884;SDS011;6510;51.362;7.370;2022-10-16T05:08:34;1.83;;;1.70;;
12884;SDS011;6510;51.362;7.370;2022-10-16T05:10:59;2.83;;;1.60;;
12884;SDS011;6510;51.362;7.370;2022-10-16T05:13:26;2.13;;;1.77;;
12884;SDS011;6510;51.362;7.370;2022-10-16T05:15:52;2.13;;;1.60;;
12884;SDS011;6510;51.362;7.370;2022-10-16T05:18:18;3.10;;;1.77;;
12884;SDS011;6510;51.362;7.370;2022-10-16T05:20:44;2.50;;;1.70;;
12884;SDS011;6510;51.362;7.370;2022-10-16T05:23:09;2.10;;;1.97;;
12884;SDS011;6510;51.362;7.370;2022-10-16T05:25:36;1.77;;;1.67;;
12884;SDS011;6510;51.362;7.370;2022-10-16T05:28:02;1.70;;;1.60;;
12884;SDS011;6510;51.362;7.370;2022-10-16T05:30:28;2.70;;;1.70;;
12884;SDS011;6510;51.362;7.370;2022-10-16T05:32:54;2.27;;;1.50;;
12884;SDS011;6510;51.362;7.370;2022-10-16T05:35:20;3.07;;;2.00;;
12884;SDS011;6510;51.362;7.370;2022-10-16T05:37:46;3.50;;;2.60;;
12884;SDS011;6510;51.362;7.370;2022-10-16T05:40:12;1.90;;;1.80;;
12884;SDS011;6510;51.362;7.370;2022-10-16T05:42:38;2.07;;;1.87;;
12884;SDS011;6510;51.362;7.370;2022-10-16T05:45:06;2.73;;;1.93;;
12884;SDS011;6510;51.362;7.370;2022-10-16T05:47:33;2.00;;;1.90;;
12884;SDS011;6510;51.362;7.370;2022-10-16T05:49:59;2.87;;;1.77;;
12884;SDS011;6510;51.362;7.370;2022-10-16T05:52:24;4.87;;;2.00;;
12884;SDS011;6510;51.362;7.370;2022-10-16T05:54:51;1.80;;;1.70;;
12884;SDS011;6510;51.362;7.370;2022-10-16T05:57:17;2.67;;;1.60;;
12884;SDS011;6510;51.362;7.370;2022-10-16T05:59:42;3.53;;;1.80;;
12884;SDS011;6510;51.362;7.370;2022-10-16T06:02:11;1.97;;;1.80;;
12884;SDS011;6510;51.362;7.370;2022-10-16T06:04:38;2.17;;;2.07;;
12884;SDS011;6510;51.362;7.370;2022-10-16T06:07:04;2.40;;;2.20;;
12884;SDS011;6510;51.362;7.370;2022-10-16T06:09:29;2.97;;;2.00;;
12884;SDS011;6510;51.362;7.370;2022-10-16T06:11:55;3.17;;;1.97;;
12884;SDS011;6510;51.362;7.370;2022-10-16T06:14:20;2.13;;;1.80;;
12884;SDS011;6510;51.362;7.370;2022-10-16T06:16:46;3.03;;;2.03;;
12884;SDS011;6510;51.362;7.370;2022-10-16T06:19:12;4.93;;;2.00;;
12884;SDS011;6510;51.362;7.370;2022-10-16T06:21:37;2.33;;;1.77;;
12884;SDS011;6510;51.362;7.370;2022-10-16T06:24:03;1.87;;;1.77;;
12884;SDS011;6510;51.362;7.370;2022-10-16T06:26:29;2.27;;;1.93;;
12884;SDS011;6510;51.362;7.370;2022-10-16T06:28:56;3.13;;;1.80;;
12884;SDS011;6510;51.362;7.370;2022-10-16T06:31:24;2.30;;;2.10;;
12884;SDS011;6510;51.362;7.370;2022-10-16T06:33:55;2.87;;;1.80;;
12884;SDS011;6510;51.362;7.370;2022-10-16T06:36:22;1.90;;;1.80;;
12884;SDS011;6510;51.362;7.370;2022-10-16T06:38:48;2.37;;;2.27;;
12884;SDS011;6510;51.362;7.370;2022-10-16T06:41:15;3.83;;;3.53;;
12884;SDS011;6510;51.362;7.370;2022-10-16T06:43:42;2.90;;;2.43;;
12884;SDS011;6510;51.362;7.370;2022-10-16T06:46:12;1.60;;;1.60;;
12884;SDS011;6510;51.362;7.370;2022-10-16T06:48:39;1.87;;;1.77;;
12884;SDS011;6510;51.362;7.370;2022-10-16T06:53:34;2.37;;;1.90;;
12884;SDS011;6510;51.362;7.370;2022-10-16T06:56:12;2.93;;;1.80;;
12884;SDS011;6510;51.362;7.370;2022-10-16T06:58:42;2.73;;;1.70;;
12884;SDS011;6510;51.362;7.370;2022-10-16T07:01:09;3.43;;;3.20;;
12884;SDS011;6510;51.362;7.370;2022-10-16T07:03:39;2.40;;;2.30;;
12884;SDS011;6510;51.362;7.370;2022-10-16T07:06:07;3.73;;;2.33;;
12884;SDS011;6510;51.362;7.370;2022-10-16T07:08:43;2.13;;;1.97;;
12884;SDS011;6510;51.362;7.370;2022-10-16T07:11:11;2.90;;;2.70;;
12884;SDS011;6510;51.362;7.370;2022-10-16T07:13:39;2.83;;;2.53;;
12884;SDS011;6510;51.362;7.370;2022-10-16T07:16:11;4.30;;;2.10;;
12884;SDS011;6510;51.362;7.370;2022-10-16T07:18:38;2.20;;;2.10;;
12884;SDS011;6510;51.362;7.370;2022-10-16T07:23:38;2.33;;;2.13;;
12884;SDS011;6510;51.362;7.370;2022-10-16T07:26:04;3.53;;;1.80;;
12884;SDS011;6510;51.362;7.370;2022-10-16T07:28:30;1.80;;;1.70;;
12884;SDS011;6510;51.362;7.370;2022-10-16T07:31:00;1.53;;;1.40;;
12884;SDS011;6510;51.362;7.370;2022-10-16T07:33:30;2.10;;;1.90;;
12884;SDS011;6510;51.362;7.370;2022-10-16T07:35:57;1.70;;;1.60;;
12884;SDS011;6510;51.362;7.370;2022-10-16T07:38:22;1.77;;;1.27;;
12884;SDS011;6510;51.362;7.370;2022-10-16T07:40:48;3.47;;;2.07;;
12884;SDS011;6510;51.362;7.370;2022-10-16T07:43:25;2.80;;;1.40;;
12884;SDS011;6510;51.362;7.370;2022-10-16T07:45:51;3.57;;;1.57;;
12884;SDS011;6510;51.362;7.370;2022-10-16T07:48:17;2.40;;;1.40;;
12884;SDS011;6510;51.362;7.370;2022-10-16T07:50:44;2.13;;;1.40;;
12884;SDS011;6510;51.362;7.370;2022-10-16T07:53:10;1.87;;;1.77;;
12884;SDS011;6510;51.362;7.370;2022-10-16T07:55:36;1.73;;;1.50;;
12884;SDS011;6510;51.362;7.370;2022-10-16T07:58:02;2.03;;;1.30;;
12884;SDS011;6510;51.362;7.370;2022-10-16T08:00:29;1.40;;;1.30;;
12884;SDS011;6510;51.362;7.370;2022-10-16T08:02:56;3.10;;;1.60;;
12884;SDS011;6510;51.362;7.370;2022-10-16T08:05:28;2.03;;;1.27;;
12884;SDS011;6510;51.362;7.370;2022-10-16T08:07:56;1.30;;;1.20;;
12884;SDS011;6510;51.362;7.370;2022-10-16T08:10:23;3.57;;;1.33;;
12884;SDS011;6510;51.362;7.370;2022-10-16T08:12:50;1.90;;;1.20;;
12884;SDS011;6510;51.362;7.370;2022-10-16T08:15:16;2.28;;;0.90;;
12884;SDS011;6510;51.362;7.370;2022-10-16T08:17:42;1.45;;;1.17;;
12884;SDS011;6510;51.362;7.370;2022-10-16T08:20:08;2.22;;;1.20;;
12884;SDS011;6510;51.362;7.370;2022-10-16T08:22:37;1.35;;;1.15;;
12884;SDS011;6510;51.362;7.370;2022-10-16T08:25:03;2.08;;;1.20;;
12884;SDS011;6510;51.362;7.370;2022-10-16T08:27:32;2.15;;;1.20;;
12884;SDS011;6510;51.362;7.370;2022-10-16T08:29:58;1.13;;;1.10;;
12884;SDS011;6510;51.362;7.370;2022-10-16T08:32:23;1.30;;;1.20;;
12884;SDS011;6510;51.362;7.370;2022-10-16T08:34:49;2.22;;;1.38;;
12884;SDS011;6510;51.362;7.370;2022-10-16T08:37:15;2.15;;;1.05;;
12884;SDS011;6510;51.362;7.370;2022-10-16T08:39:42;2.27;;;1.10;;
12884;SDS011;6510;51.362;7.370;2022-10-16T08:44:44;1.83;;;1.13;;
12884;SDS011;6510;51.362;7.370;2022-10-16T08:47:26;1.50;;;1.20;;
12884;SDS011;6510;51.362;7.370;2022-10-16T08:50:02;1.47;;;1.13;;
12884;SDS011;6510;51.362;7.370;2022-10-16T08:52:35;3.13;;;1.30;;
12884;SDS011;6510;51.362;7.370;2022-10-16T08:55:08;2.40;;;1.10;;
12884;SDS011;6510;51.362;7.370;2022-10-16T08:57:51;2.60;;;1.27;;
12884;SDS011;6510;51.362;7.370;2022-10-16T09:00:16;1.97;;;1.30;;
12884;SDS011;6510;51.362;7.370;2022-10-16T09:05:20;3.23;;;1.30;;
12884;SDS011;6510;51.362;7.370;2022-10-16T09:13:36;2.30;;;1.43;;
12884;SDS011;6510;51.362;7.370;2022-10-16T09:16:51;1.27;;;1.10;;
12884;SDS011;6510;51.362;7.370;2022-10-16T09:19:04;1.20;;;0.93;;
12884;SDS011;6510;51.362;7.370;2022-10-16T09:21:35;2.97;;;1.33;;
12884;SDS011;6510;51.362;7.370;2022-10-16T09:24:15;2.90;;;1.00;;
12884;SDS011;6510;51.362;7.370;2022-10-16T09:26:43;1.73;;;1.27;;
12884;SDS011;6510;51.362;7.370;2022-10-16T09:29:16;2.83;;;1.17;;
12884;SDS011;6510;51.362;7.370;2022-10-16T09:31:47;0.90;;;0.90;;
12884;SDS011;6510;51.362;7.370;2022-10-16T09:34:20;5.93;;;1.10;;
12884;SDS011;6510;51.362;7.370;2022-10-16T09:36:55;2.93;;;1.27;;
12884;SDS011;6510;51.362;7.370;2022-10-16T09:39:23;3.50;;;1.03;;
12884;SDS011;6510;51.362;7.370;2022-10-16T09:41:49;1.37;;;0.80;;
12884;SDS011;6510;51.362;7.370;2022-10-16T09:49:55;3.90;;;1.00;;
12884;SDS011;6510;51.362;7.370;2022-10-16T09:52:24;1.10;;;0.90;;
12884;SDS011;6510;51.362;7.370;2022-10-16T09:54:51;2.10;;;1.10;;
12884;SDS011;6510;51.362;7.370;2022-10-16T09:57:19;2.40;;;1.37;;
12884;SDS011;6510;51.362;7.370;2022-10-16T09:59:50;5.60;;;2.00;;
12884;SDS011;6510;51.362;7.370;2022-10-16T10:02:23;1.93;;;1.13;;
12884;SDS011;6510;51.362;7.370;2022-10-16T10:05:03;0.80;;;0.80;;
12884;SDS011;6510;51.362;7.370;2022-10-16T10:07:31;4.27;;;1.00;;
12884;SDS011;6510;51.362;7.370;2022-10-16T10:10:02;1.07;;;0.90;;
12884;SDS011;6510;51.362;7.370;2022-10-16T10:12:30;2.20;;;1.40;;
12884;SDS011;6510;51.362;7.370;2022-10-16T10:15:04;1.63;;;1.50;;
12884;SDS011;6510;51.362;7.370;2022-10-16T10:17:45;1.13;;;0.80;;
12884;SDS011;6510;51.362;7.370;2022-10-16T10:20:30;1.97;;;0.90;;
12884;SDS011;6510;51.362;7.370;2022-10-16T10:22:59;1.90;;;0.80;;
12884;SDS011;6510;51.362;7.370;2022-10-16T10:36:29;1.70;;;1.30;;
12884;SDS011;6510;51.362;7.370;2022-10-16T10:39:19;3.70;;;1.20;;
12884;SDS011;6510;51.362;7.370;2022-10-16T10:42:01;2.67;;;1.03;;
12884;SDS011;6510;51.362;7.370;2022-10-16T10:45:03;1.30;;;1.10;;
12884;SDS011;6510;51.362;7.370;2022-10-16T10:53:29;1.37;;;0.93;;
12884;SDS011;6510;51.362;7.370;2022-10-16T11:01:21;1.85;;;1.05;;
12884;SDS011;6510;51.362;7.370;2022-10-16T11:04:42;1.95;;;1.00;;
12884;SDS011;6510;51.362;7.370;2022-10-16T11:07:16;2.15;;;1.30;;
12884;SDS011;6510;51.362;7.370;2022-10-16T11:09:51;1.42;;;1.02;;
12884;SDS011;6510;51.362;7.370;2022-10-16T11:17:34;2.13;;;1.08;;
12884;SDS011;6510;51.362;7.370;2022-10-16T11:25:22;1.75;;;0.93;;
12884;SDS011;6510;51.362;7.370;2022-10-16T11:44:24;2.00;;;1.30;;
12884;SDS011;6510;51.362;7.370;2022-10-16T11:50:09;0.88;;;0.88;;
12884;SDS011;6510;51.362;7.370;2022-10-16T11:55:29;1.35;;;0.90;;
12884;SDS011;6510;51.362;7.370;2022-10-16T11:58:28;3.55;;;1.08;;
12884;SDS011;6510;51.362;7.370;2022-10-16T12:04:05;0.98;;;0.80;;
12884;SDS011;6510;51.362;7.370;2022-10-16T12:06:58;1.20;;;0.90;;
12884;SDS011;6510;51.362;7.370;2022-10-16T12:09:53;1.58;;;0.70;;
12884;SDS011;6510;51.362;7.370;2022-10-16T12:15:15;1.77;;;0.85;;
12884;SDS011;6510;51.362;7.370;2022-10-16T12:17:45;1.27;;;0.70;;
12884;SDS011;6510;51.362;7.370;2022-10-16T12:22:40;0.82;;;0.77;;
12884;SDS011;6510;51.362;7.370;2022-10-16T12:25:30;2.60;;;0.80;;
12884;SDS011;6510;51.362;7.370;2022-10-16T12:30:41;1.50;;;0.60;;
12884;SDS011;6510;51.362;7.370;2022-10-16T12:33:22;2.20;;;0.75;;
12884;SDS011;6510;51.362;7.370;2022-10-16T12:35:51;0.65;;;0.60;;
12884;SDS011;6510;51.362;7.370;2022-10-16T12:38:21;0.68;;;0.68;;
12884;SDS011;6510;51.362;7.370;2022-10-16T12:40:57;4.57;;;0.90;;
12884;SDS011;6510;51.362;7.370;2022-10-16T12:46:18;1.23;;;1.13;;
12884;SDS011;6510;51.362;7.370;2022-10-16T12:48:47;0.73;;;0.70;;
12884;SDS011;6510;51.362;7.370;2022-10-16T12:54:04;0.80;;;0.65;;
12884;SDS011;6510;51.362;7.370;2022-10-16T12:59:43;0.70;;;0.70;;
12884;SDS011;6510;51.362;7.370;2022-10-16T13:10:28;1.80;;;1.00;;
12884;SDS011;6510;51.362;7.370;2022-10-16T13:23:58;1.13;;;0.52;;
12884;SDS011;6510;51.362;7.370;2022-10-16T13:29:11;1.70;;;0.77;;
12884;SDS011;6510;51.362;7.370;2022-10-16T13:31:39;0.80;;;0.80;;
12884;SDS011;6510;51.362;7.370;2022-10-16T13:34:05;2.85;;;1.10;;
12884;SDS011;6510;51.362;7.370;2022-10-16T13:36:47;0.60;;;0.60;;
12884;SDS011;6510;51.362;7.370;2022-10-16T13:39:24;1.00;;;0.82;;
12884;SDS011;6510;51.362;7.370;2022-10-16T13:42:11;1.20;;;0.80;;
12884;SDS011;6510;51.362;7.370;2022-10-16T13:44:44;1.17;;;0.77;;
12884;SDS011;6510;51.362;7.370;2022-10-16T13:47:23;1.25;;;1.08;;
12884;SDS011;6510;51.362;7.370;2022-10-16T13:50:00;1.77;;;0.85;;
12884;SDS011;6510;51.362;7.370;2022-10-16T13:52:44;1.10;;;0.70;;
12884;SDS011;6510;51.362;7.370;2022-10-16T13:55:11;2.53;;;1.00;;
12884;SDS011;6510;51.362;7.370;2022-10-16T13:57:41;0.95;;;0.70;;
12884;SDS011;6510;51.362;7.370;2022-10-16T14:00:21;1.52;;;0.80;;
12884;SDS011;6510;51.362;7.370;2022-10-16T14:03:05;2.83;;;0.90;;
12884;SDS011;6510;51.362;7.370;2022-10-16T14:05:42;0.70;;;0.70;;
12884;SDS011;6510;51.362;7.370;2022-10-16T14:08:16;0.80;;;0.80;;
12884;SDS011;6510;51.362;7.370;2022-10-16T14:10:42;2.05;;;0.73;;
12884;SDS011;6510;51.362;7.370;2022-10-16T14:13:13;1.52;;;0.85;;
12884;SDS011;6510;51.362;7.370;2022-10-16T14:15:45;1.77;;;0.95;;
12884;SDS011;6510;51.362;7.370;2022-10-16T14:18:18;1.10;;;0.85;;
12884;SDS011;6510;51.362;7.370;2022-10-16T14:20:47;0.80;;;0.80;;
12884;SDS011;6510;51.362;7.370;2022-10-16T14:25:43;0.87;;;0.83;;
12884;SDS011;6510;51.362;7.370;2022-10-16T14:38:38;2.53;;;0.77;;
12884;SDS011;6510;51.362;7.370;2022-10-16T14:41:05;2.47;;;0.80;;
12884;SDS011;6510;51.362;7.370;2022-10-16T14:43:32;2.70;;;0.80;;
12884;SDS011;6510;51.362;7.370;2022-10-16T14:46:06;1.50;;;0.97;;
12884;SDS011;6510;51.362;7.370;2022-10-16T14:48:41;0.93;;;0.80;;
12884;SDS011;6510;51.362;7.370;2022-10-16T14:51:13;1.03;;;0.70;;
12884;SDS011;6510;51.362;7.370;2022-10-16T14:53:40;0.93;;;0.60;;
12884;SDS011;6510;51.362;7.370;2022-10-16T14:56:09;2.90;;;0.97;;
12884;SDS011;6510;51.362;7.370;2022-10-16T14:58:50;1.73;;;1.00;;
12884;SDS011;6510;51.362;7.370;2022-10-16T15:01:17;4.17;;;0.80;;
12884;SDS011;6510;51.362;7.370;2022-10-16T15:03:43;2.93;;;1.30;;
12884;SDS011;6510;51.362;7.370;2022-10-16T15:06:12;2.30;;;1.30;;
12884;SDS011;6510;51.362;7.370;2022-10-16T15:08:41;2.60;;;0.80;;
12884;SDS011;6510;51.362;7.370;2022-10-16T15:11:14;12.17;;;8.37;;
12884;SDS011;6510;51.362;7.370;2022-10-16T15:13:44;1.47;;;1.37;;
12884;SDS011;6510;51.362;7.370;2022-10-16T15:16:14;1.70;;;1.60;;
12884;SDS011;6510;51.362;7.370;2022-10-16T15:18:41;4.07;;;1.10;;
12884;SDS011;6510;51.362;7.370;2022-10-16T15:21:23;1.67;;;0.93;;
12884;SDS011;6510;51.362;7.370;2022-10-16T15:23:53;3.33;;;1.97;;
12884;SDS011;6510;51.362;7.370;2022-10-16T15:26:19;0.83;;;0.70;;
12884;SDS011;6510;51.362;7.370;2022-10-16T15:28:45;2.60;;;0.80;;
12884;SDS011;6510;51.362;7.370;2022-10-16T15:31:10;2.30;;;0.87;;
12884;SDS011;6510;51.362;7.370;2022-10-16T15:33:36;0.67;;;0.67;;
12884;SDS011;6510;51.362;7.370;2022-10-16T15:36:02;2.40;;;1.40;;
12884;SDS011;6510;51.362;7.370;2022-10-16T15:38:28;2.57;;;1.20;;
12884;SDS011;6510;51.362;7.370;2022-10-16T15:40:55;1.40;;;0.90;;
12884;SDS011;6510;51.362;7.370;2022-10-16T15:43:21;1.07;;;0.77;;
12884;SDS011;6510;51.362;7.370;2022-10-16T15:45:54;1.10;;;1.00;;
12884;SDS011;6510;51.362;7.370;2022-10-16T15:48:26;2.67;;;1.10;;
12884;SDS011;6510;51.362;7.370;2022-10-16T15:50:52;1.07;;;0.87;;
12884;SDS011;6510;51.362;7.370;2022-10-16T15:53:17;1.53;;;0.80;;
12884;SDS011;6510;51.362;7.370;2022-10-16T15:55:43;0.97;;;0.97;;
12884;SDS011;6510;51.362;7.370;2022-10-16T15:58:09;1.33;;;0.83;;
12884;SDS011;6510;51.362;7.370;2022-10-16T16:00:34;2.93;;;0.90;;
12884;SDS011;6510;51.362;7.370;2022-10-16T16:03:00;2.43;;;0.70;;
12884;SDS011;6510;51.362;7.370;2022-10-16T16:05:25;2.70;;;1.10;;
12884;SDS011;6510;51.362;7.370;2022-10-16T16:07:52;1.93;;;1.30;;
12884;SDS011;6510;51.362;7.370;2022-10-16T16:10:18;1.87;;;1.60;;
12884;SDS011;6510;51.362;7.370;2022-10-16T16:12:46;1.70;;;1.40;;
12884;SDS011;6510;51.362;7.370;2022-10-16T16:15:18;1.90;;;1.30;;
12884;SDS011;6510;51.362;7.370;2022-10-16T16:17:44;2.63;;;1.30;;
12884;SDS011;6510;51.362;7.370;2022-10-16T16:20:10;2.73;;;1.07;;
12884;SDS011;6510;51.362;7.370;2022-10-16T16:22:35;1.60;;;0.90;;
12884;SDS011;6510;51.362;7.370;2022-10-16T16:25:01;2.60;;;0.90;;
12884;SDS011;6510;51.362;7.370;2022-10-16T16:27:27;0.80;;;0.80;;
12884;SDS011;6510;51.362;7.370;2022-10-16T16:29:54;1.57;;;1.37;;
12884;SDS011;6510;51.362;7.370;2022-10-16T16:32:20;1.97;;;1.30;;
12884;SDS011;6510;51.362;7.370;2022-10-16T16:34:46;2.07;;;1.33;;
12884;SDS011;6510;51.362;7.370;2022-10-16T16:37:12;2.13;;;0.90;;
12884;SDS011;6510;51.362;7.370;2022-10-16T16:39:41;2.53;;;0.83;;
12884;SDS011;6510;51.362;7.370;2022-10-16T16:42:06;1.60;;;1.10;;
12884;SDS011;6510;51.362;7.370;2022-10-16T16:44:32;1.30;;;1.20;;
12884;SDS011;6510;51.362;7.370;2022-10-16T16:47:01;1.80;;;1.23;;
12884;SDS011;6510;51.362;7.370;2022-10-16T16:49:27;2.20;;;1.10;;
12884;SDS011;6510;51.362;7.370;2022-10-16T16:51:53;0.87;;;0.87;;
12884;SDS011;6510;51.362;7.370;2022-10-16T16:54:19;3.47;;;2.50;;
12884;SDS011;6510;51.362;7.370;2022-10-16T16:56:45;1.50;;;1.40;;
12884;SDS011;6510;51.362;7.370;2022-10-16T16:59:14;1.50;;;1.37;;
12884;SDS011;6510;51.362;7.370;2022-10-16T17:01:42;1.50;;;1.20;;
12884;SDS011;6510;51.362;7.370;2022-10-16T17:04:08;2.60;;;1.40;;
12884;SDS011;6510;51.362;7.370;2022-10-16T17:06:35;2.27;;;1.10;;
12884;SDS011;6510;51.362;7.370;2022-10-16T17:09:02;2.20;;;0.90;;
12884;SDS011;6510;51.362;7.370;2022-10-16T17:11:29;1.40;;;1.30;;
12884;SDS011;6510;51.362;7.370;2022-10-16T17:13:55;2.57;;;1.13;;
12884;SDS011;6510;51.362;7.370;2022-10-16T17:16:23;1.73;;;1.20;;
12884;SDS011;6510;51.362;7.370;2022-10-16T17:18:50;2.23;;;1.10;;
12884;SDS011;6510;51.362;7.370;2022-10-16T17:21:17;5.03;;;1.10;;
12884;SDS011;6510;51.362;7.370;2022-10-16T17:23:43;1.27;;;1.10;;
12884;SDS011;6510;51.362;7.370;2022-10-16T17:26:11;1.50;;;1.00;;
12884;SDS011;6510;51.362;7.370;2022-10-16T17:28:39;1.83;;;1.00;;
12884;SDS011;6510;51.362;7.370;2022-10-16T17:31:10;1.70;;;1.10;;
12884;SDS011;6510;51.362;7.370;2022-10-16T17:33:44;1.57;;;1.00;;
12884;SDS011;6510;51.362;7.370;2022-10-16T17:36:11;1.30;;;0.90;;
12884;SDS011;6510;51.362;7.370;2022-10-16T17:38:41;1.80;;;1.07;;
12884;SDS011;6510;51.362;7.370;2022-10-16T17:41:15;1.73;;;0.93;;
12884;SDS011;6510;51.362;7.370;2022-10-16T17:43:45;3.20;;;1.13;;
12884;SDS011;6510;51.362;7.370;2022-10-16T17:46:11;1.30;;;1.30;;
12884;SDS011;6510;51.362;7.370;2022-10-16T17:48:39;1.60;;;1.10;;